Time;durP1;ratioP1;P1;durP2;ratioP2;P2;SDS_P1;SDS_P2;PMS_P1;PMS_P2;Temp;Humidity;BMP_temperature;BMP_pressure;BME280_temperature;BME280_humidity;BME280_pressure;Samples;Min_cycle;Max_cycle;Signal;HPM_P1;HPM_P2
2023/05/14 00:02:49;;;;;;;4.40;4.00;;;15.50;42.20;;;;;;10375422;28;20222;-70
2023/05/14 00:07:52;;;;;;;5.20;4.80;;;15.50;42.10;;;;;;10373722;28;20221;-70
2023/05/14 00:12:56;;;;;;;5.23;4.83;;;15.50;42.20;;;;;;10376066;28;20226;-70
2023/05/14 00:18:00;;;;;;;4.40;4.00;;;15.50;42.30;;;;;;10371012;28;20245;-70
2023/05/14 00:23:03;;;;;;;5.10;4.70;;;15.50;42.20;;;;;;10370639;28;20333;-69
2023/05/14 00:28:08;;;;;;;4.20;3.90;;;15.40;42.30;;;;;;10375073;28;20744;-69
2023/05/14 00:33:11;;;;;;;5.43;4.93;;;15.40;42.50;;;;;;10371084;28;20230;-69
2023/05/14 00:38:16;;;;;;;4.70;4.40;;;15.40;42.40;;;;;;10368779;28;20832;-69
2023/05/14 00:43:22;;;;;;;4.83;4.33;;;15.40;42.50;;;;;;10375925;28;20233;-69
2023/05/14 00:48:25;;;;;;;5.13;4.73;;;15.40;42.70;;;;;;10371723;28;20233;-69
2023/05/14 00:53:29;;;;;;;5.03;4.63;;;15.40;42.70;;;;;;10375860;28;20222;-69
2023/05/14 00:58:33;;;;;;;4.70;4.40;;;15.40;42.80;;;;;;10370726;28;20226;-69
2023/05/14 01:03:37;;;;;;;5.07;4.67;;;15.40;43.00;;;;;;10371692;28;20214;-69
2023/05/14 01:08:59;;;;;;;4.47;4.17;;;15.40;42.90;;;;;;10371139;28;20233;-69
2023/05/14 01:14:13;;;;;;;4.80;4.40;;;15.40;43.40;;;;;;10372378;28;20694;-69
2023/05/14 01:19:22;;;;;;;5.17;4.77;;;15.40;43.50;;;;;;10367119;28;20713;-69
2023/05/14 01:24:27;;;;;;;5.13;4.77;;;15.40;43.50;;;;;;10373491;28;20237;-70
2023/05/14 01:29:32;;;;;;;5.03;4.63;;;15.40;43.20;;;;;;10368822;28;20295;-69
2023/05/14 01:34:37;;;;;;;5.00;4.60;;;15.40;43.10;;;;;;10382888;28;20303;-70
2023/05/14 01:39:42;;;;;;;5.57;5.07;;;15.40;43.20;;;;;;10375200;28;20229;-69
2023/05/14 01:44:45;;;;;;;5.20;4.80;;;15.40;43.30;;;;;;10378512;28;20891;-71
2023/05/14 01:49:48;;;;;;;5.33;4.50;;;15.40;43.10;;;;;;10377547;28;20265;-69
2023/05/14 01:54:53;;;;;;;4.97;4.60;;;15.40;43.10;;;;;;10379906;28;20233;-69
2023/05/14 01:59:56;;;;;;;4.57;4.23;;;15.40;43.40;;;;;;10378492;28;20226;-69
2023/05/14 02:04:59;;;;;;;5.47;5.07;;;15.40;43.20;;;;;;10382507;28;20245;-69
2023/05/14 02:10:04;;;;;;;4.73;4.43;;;15.40;43.20;;;;;;10375117;28;20236;-69
2023/05/14 02:15:09;;;;;;;5.57;5.17;;;15.40;43.40;;;;;;10376903;28;20914;-69
2023/05/14 02:20:13;;;;;;;5.47;5.07;;;15.40;43.20;;;;;;10377367;28;20242;-69
2023/05/14 02:25:18;;;;;;;5.13;4.73;;;15.40;43.20;;;;;;10372931;28;20801;-69
2023/05/14 02:30:22;;;;;;;5.10;4.60;;;15.30;43.40;;;;;;10372803;28;20246;-70
2023/05/14 02:35:25;;;;;;;5.40;5.00;;;15.30;43.20;;;;;;10380963;28;20241;-70
2023/05/14 02:40:30;;;;;;;5.40;5.00;;;15.30;43.30;;;;;;10377622;28;20234;-69
2023/05/14 02:45:33;;;;;;;5.10;4.70;;;15.30;43.50;;;;;;10388090;28;20249;-69
2023/05/14 02:50:36;;;;;;;5.33;4.90;;;15.30;43.40;;;;;;10380840;28;20752;-70
2023/05/14 02:55:41;;;;;;;5.13;4.83;;;15.30;43.40;;;;;;10381812;28;20225;-69
2023/05/14 03:00:44;;;;;;;4.93;4.43;;;15.30;43.80;;;;;;10376577;28;20241;-69
2023/05/14 03:05:47;;;;;;;4.83;4.43;;;15.30;43.60;;;;;;10383724;28;20301;-69
2023/05/14 03:10:52;;;;;;;5.27;4.87;;;15.30;43.70;;;;;;10379324;28;20241;-70
2023/05/14 03:15:55;;;;;;;4.77;4.40;;;15.30;43.90;;;;;;10387934;28;20226;-69
2023/05/14 03:20:59;;;;;;;5.20;4.80;;;15.30;43.70;;;;;;10379314;28;20299;-69
2023/05/14 03:26:03;;;;;;;5.10;4.70;;;15.30;43.70;;;;;;10379078;28;21128;-70
2023/05/14 03:31:07;;;;;;;5.67;5.20;;;15.30;43.90;;;;;;10377133;28;20233;-69
2023/05/14 03:36:10;;;;;;;4.93;4.63;;;15.30;43.80;;;;;;10375841;28;20229;-69
2023/05/14 03:41:14;;;;;;;4.90;4.57;;;15.30;43.80;;;;;;10374889;28;20268;-70
2023/05/14 03:46:17;;;;;;;4.93;4.60;;;15.30;44.10;;;;;;10375188;28;20289;-70
2023/05/14 03:51:20;;;;;;;5.00;4.60;;;15.30;43.70;;;;;;10376520;28;20245;-69
2023/05/14 03:56:25;;;;;;;5.87;5.00;;;15.30;43.60;;;;;;10372202;28;20241;-69
2023/05/14 04:01:28;;;;;;;5.17;4.77;;;15.30;44.00;;;;;;10376694;28;20229;-70
2023/05/14 04:06:32;;;;;;;4.57;4.27;;;15.30;43.80;;;;;;10380589;28;20234;-70
2023/05/14 04:11:37;;;;;;;4.73;4.33;;;15.30;43.80;;;;;;10380987;28;20250;-70
2023/05/14 04:16:40;;;;;;;4.40;4.10;;;15.30;44.00;;;;;;10377446;28;20265;-69
2023/05/14 04:21:44;;;;;;;4.50;4.10;;;15.30;43.90;;;;;;10374010;28;20228;-70
2023/05/14 04:26:48;;;;;;;5.03;4.70;;;15.30;43.90;;;;;;10381678;28;20229;-69
2023/05/14 04:31:51;;;;;;;5.10;4.70;;;15.30;44.30;;;;;;10378924;28;20229;-70
2023/05/14 04:36:54;;;;;;;4.60;4.23;;;15.40;44.10;;;;;;10374851;28;20232;-69
2023/05/14 04:41:59;;;;;;;4.33;4.03;;;15.40;44.10;;;;;;10373748;28;20230;-70
2023/05/14 04:47:02;;;;;;;4.87;4.37;;;15.40;44.40;;;;;;10375379;28;20234;-70
2023/05/14 04:52:06;;;;;;;4.73;4.43;;;15.40;44.10;;;;;;10376926;28;20287;-70
2023/05/14 04:57:11;;;;;;;4.67;4.30;;;15.40;44.20;;;;;;10371501;28;20772;-69
2023/05/14 05:02:14;;;;;;;4.33;4.03;;;15.40;44.40;;;;;;10373792;28;20238;-70
2023/05/14 05:07:17;;;;;;;4.27;3.97;;;15.40;44.10;;;;;;10378781;28;20233;-69
2023/05/14 05:12:22;;;;;;;4.00;3.70;;;15.40;44.10;;;;;;10388319;28;20225;-70
2023/05/14 05:17:25;;;;;;;4.20;3.90;;;15.40;44.40;;;;;;10383961;28;20240;-70
2023/05/14 05:22:28;;;;;;;4.30;3.90;;;15.40;44.20;;;;;;10378413;28;20226;-70
2023/05/14 05:27:33;;;;;;;4.17;3.87;;;15.40;44.10;;;;;;10381555;28;20238;-69
2023/05/14 05:32:36;;;;;;;4.50;4.20;;;15.40;43.90;;;;;;10381910;28;20236;-69
2023/05/14 05:37:40;;;;;;;4.00;3.70;;;15.50;43.80;;;;;;10382125;28;20287;-70
2023/05/14 05:42:44;;;;;;;4.07;3.77;;;15.50;43.80;;;;;;10382600;28;20222;-70
2023/05/14 05:47:47;;;;;;;4.10;3.80;;;15.50;44.10;;;;;;10381879;28;20255;-70
2023/05/14 05:52:50;;;;;;;4.73;4.33;;;15.60;44.10;;;;;;10377490;28;20253;-69
2023/05/14 05:57:55;;;;;;;4.40;4.10;;;15.60;44.30;;;;;;10380302;28;20226;-69
2023/05/14 06:02:58;;;;;;;4.03;3.73;;;15.60;44.30;;;;;;10385174;28;20233;-69
2023/05/14 06:08:03;;;;;;;4.30;4.00;;;15.70;44.10;;;;;;10375668;28;20249;-70
2023/05/14 06:13:07;;;;;;;4.43;4.03;;;15.70;43.80;;;;;;10376296;28;20246;-69
2023/05/14 06:18:10;;;;;;;3.80;3.50;;;15.80;44.00;;;;;;10375637;28;20233;-69
2023/05/14 06:23:13;;;;;;;4.10;3.80;;;15.80;43.60;;;;;;10379676;28;20222;-70
2023/05/14 06:28:18;;;;;;;4.47;4.07;;;15.80;43.40;;;;;;10369141;28;20229;-70
2023/05/14 06:33:28;;;;;;;4.10;3.80;;;15.80;43.50;;;;;;10379695;28;21095;-69
2023/05/14 06:38:32;;;;;;;4.13;3.80;;;15.80;43.40;;;;;;10378489;28;20324;-69
2023/05/14 06:43:36;;;;;;;3.93;3.73;;;15.80;43.20;;;;;;10379563;28;20279;-70
2023/05/14 06:48:39;;;;;;;3.80;3.50;;;15.80;43.20;;;;;;10376409;28;20241;-69
2023/05/14 06:53:42;;;;;;;3.67;3.47;;;15.80;43.10;;;;;;10381297;28;20234;-69
2023/05/14 06:58:47;;;;;;;4.23;3.93;;;15.80;43.20;;;;;;10373379;28;20234;-69
2023/05/14 07:03:50;;;;;;;4.60;4.20;;;15.80;42.80;;;;;;10370880;28;20226;-70
2023/05/14 07:08:54;;;;;;;4.67;4.37;;;15.80;42.70;;;;;;10371215;28;20242;-70
2023/05/14 07:13:58;;;;;;;4.50;4.20;;;15.70;42.60;;;;;;10377167;28;20234;-70
2023/05/14 07:19:01;;;;;;;4.60;4.30;;;15.70;42.90;;;;;;10369254;28;20230;-70
2023/05/14 07:24:05;;;;;;;4.70;4.30;;;15.70;43.10;;;;;;10370056;28;20223;-70
2023/05/14 07:29:10;;;;;;;4.97;4.63;;;15.80;43.30;;;;;;10368015;28;20729;-70
2023/05/14 07:34:13;;;;;;;5.10;4.70;;;15.80;42.90;;;;;;10374324;28;20266;-70
2023/05/14 07:39:16;;;;;;;5.10;4.70;;;15.90;43.00;;;;;;10368822;28;20230;-69
2023/05/14 07:44:21;;;;;;;5.50;5.00;;;15.90;42.90;;;;;;10371381;28;20240;-69
2023/05/14 07:49:24;;;;;;;5.10;4.77;;;16.00;42.60;;;;;;10370855;28;20741;-70
2023/05/14 07:54:27;;;;;;;5.20;4.80;;;16.00;42.70;;;;;;10374200;28;20735;-70
2023/05/14 07:59:32;;;;;;;4.10;3.80;;;16.00;42.80;;;;;;10371906;28;20226;-70
2023/05/14 08:04:35;;;;;;;4.37;3.97;;;16.10;42.90;;;;;;10372257;28;20239;-70
2023/05/14 08:09:39;;;;;;;4.20;3.90;;;16.20;43.30;;;;;;10367180;28;20221;-70
2023/05/14 08:14:44;;;;;;;4.03;3.70;;;16.40;43.20;;;;;;10366759;28;20677;-70
2023/05/14 08:19:48;;;;;;;4.03;3.73;;;16.60;42.90;;;;;;10371413;28;20810;-70
2023/05/14 08:24:51;;;;;;;3.90;3.50;;;16.70;42.90;;;;;;10369928;28;20237;-70
2023/05/14 08:29:55;;;;;;;4.00;3.60;;;16.90;43.00;;;;;;10366519;28;20298;-70
2023/05/14 08:34:59;;;;;;;3.50;3.30;;;17.10;42.50;;;;;;10373439;28;20694;-71
2023/05/14 08:40:02;;;;;;;3.43;3.23;;;17.20;42.40;;;;;;10366595;28;20218;-71
2023/05/14 08:45:12;;;;;;;2.93;2.73;;;17.30;42.30;;;;;;10369015;28;20240;-71
2023/05/14 08:50:15;;;;;;;2.87;2.67;;;17.40;41.40;;;;;;10369388;28;20241;-71
2023/05/14 08:55:19;;;;;;;3.00;2.80;;;17.50;42.00;;;;;;10370272;28;20266;-72
2023/05/14 09:00:25;;;;;;;3.30;3.10;;;17.60;42.00;;;;;;10369802;28;20222;-72
2023/05/14 09:05:28;;;;;;;3.00;2.80;;;17.70;42.20;;;;;;10370196;28;20234;-71
2023/05/14 09:10:32;;;;;;;3.10;2.90;;;17.80;41.80;;;;;;10370617;28;20227;-72
2023/05/14 09:15:40;;;;;;;2.80;2.60;;;17.90;41.60;;;;;;10369343;28;20241;-72
2023/05/14 09:20:43;;;;;;;2.53;2.33;;;18.00;41.00;;;;;;10373618;28;20225;-72
2023/05/14 09:25:48;;;;;;;2.80;2.60;;;18.00;41.30;;;;;;10372635;28;20245;-71
2023/05/14 09:30:52;;;;;;;2.43;2.33;;;18.10;41.00;;;;;;10368127;28;20222;-71
2023/05/14 09:35:59;;;;;;;2.57;2.47;;;18.10;40.40;;;;;;10367970;28;20240;-72
2023/05/14 09:41:03;;;;;;;2.93;2.60;;;18.20;40.40;;;;;;10366383;28;20906;-72
2023/05/14 09:46:07;;;;;;;2.60;2.40;;;18.20;41.10;;;;;;10370961;28;20238;-71
2023/05/14 09:51:11;;;;;;;2.70;2.50;;;18.30;41.00;;;;;;10367017;28;21121;-72
2023/05/14 09:56:15;;;;;;;3.20;2.83;;;18.40;41.10;;;;;;10376825;28;20247;-72
2023/05/14 10:01:20;;;;;;;3.23;2.80;;;18.50;41.00;;;;;;10376273;28;20234;-72
2023/05/14 10:06:27;;;;;;;2.73;2.63;;;18.50;40.10;;;;;;10380063;28;20240;-72
2023/05/14 10:11:33;;;;;;;4.47;2.57;;;18.60;39.70;;;;;;10375746;28;20234;-72
2023/05/14 10:16:43;;;;;;;2.77;2.57;;;18.60;40.10;;;;;;10376366;28;20337;-72
2023/05/14 10:21:52;;;;;;;3.10;2.90;;;18.60;39.20;;;;;;10374743;28;20269;-71
2023/05/14 10:26:57;;;;;;;2.67;2.47;;;18.70;39.90;;;;;;10378135;28;20225;-72
2023/05/14 10:32:05;;;;;;;3.03;2.50;;;18.80;40.40;;;;;;10376173;28;20225;-72
2023/05/14 10:37:11;;;;;;;2.50;2.40;;;18.90;39.20;;;;;;10376779;28;20228;-72
2023/05/14 10:42:17;;;;;;;2.50;2.40;;;18.90;39.70;;;;;;10370762;28;20230;-71
2023/05/14 10:47:22;;;;;;;2.23;2.13;;;19.00;39.60;;;;;;10373905;28;20275;-72
2023/05/14 10:52:26;;;;;;;2.53;2.40;;;19.10;39.00;;;;;;10377973;28;20839;-71
2023/05/14 10:57:31;;;;;;;2.27;2.13;;;19.20;39.40;;;;;;10373409;28;20274;-72
2023/05/14 11:02:37;;;;;;;2.57;2.47;;;19.30;39.20;;;;;;10372089;28;20234;-72
2023/05/14 11:07:42;;;;;;;2.20;2.10;;;19.40;38.70;;;;;;10373470;28;20289;-71
2023/05/14 11:12:47;;;;;;;2.10;2.00;;;19.50;38.90;;;;;;10372616;28;20226;-71
2023/05/14 11:17:52;;;;;;;2.30;2.10;;;19.50;38.90;;;;;;10374902;28;20629;-71
2023/05/14 11:22:55;;;;;;;2.27;2.07;;;19.70;38.30;;;;;;10371874;28;20222;-70
2023/05/14 11:27:59;;;;;;;2.30;2.10;;;19.80;39.00;;;;;;10371863;28;20241;-70
2023/05/14 11:33:04;;;;;;;1.90;1.80;;;19.90;39.20;;;;;;10372745;28;20230;-70
2023/05/14 11:38:07;;;;;;;1.90;1.80;;;20.00;38.40;;;;;;10368764;28;20583;-72
2023/05/14 11:43:11;;;;;;;1.80;1.60;;;20.10;38.80;;;;;;10371190;28;20304;-70
2023/05/14 11:48:16;;;;;;;2.03;1.93;;;20.20;38.10;;;;;;10367884;28;20240;-71
2023/05/14 11:53:24;;;;;;;2.13;2.03;;;20.30;37.20;;;;;;10378693;28;20242;-70
2023/05/14 11:58:27;;;;;;;1.80;1.70;;;20.40;37.90;;;;;;10369944;28;20997;-71
2023/05/14 12:03:32;;;;;;;3.07;2.00;;;20.50;37.80;;;;;;10367355;28;20226;-70
2023/05/14 12:08:36;;;;;;;2.00;1.90;;;20.60;37.10;;;;;;10371728;28;20229;-70
2023/05/14 12:13:40;;;;;;;2.27;2.17;;;20.60;37.00;;;;;;10373494;28;20229;-70
2023/05/14 12:18:44;;;;;;;2.50;2.40;;;20.60;37.00;;;;;;10371338;28;20234;-70
2023/05/14 12:23:47;;;;;;;3.07;2.87;;;20.50;36.90;;;;;;10372689;28;20225;-71
2023/05/14 12:28:56;;;;;;;3.00;2.70;;;20.50;36.90;;;;;;10369756;28;20229;-70
2023/05/14 12:34:01;;;;;;;3.30;3.10;;;20.50;36.90;;;;;;10369077;28;20233;-70
2023/05/14 12:39:04;;;;;;;2.83;2.63;;;20.50;36.70;;;;;;10369045;28;20705;-70
2023/05/14 12:44:08;;;;;;;2.90;2.70;;;20.50;37.00;;;;;;10376149;28;20232;-70
2023/05/14 12:49:12;;;;;;;3.13;2.93;;;20.60;37.00;;;;;;10367834;28;20229;-70
2023/05/14 12:54:15;;;;;;;2.70;2.50;;;20.60;36.60;;;;;;10370561;28;20314;-70
2023/05/14 12:59:19;;;;;;;3.00;2.80;;;20.70;37.20;;;;;;10372166;28;20233;-70
2023/05/14 13:04:23;;;;;;;2.63;2.53;;;20.80;36.90;;;;;;10367699;28;20233;-70
2023/05/14 13:09:27;;;;;;;2.40;2.20;;;20.90;36.40;;;;;;10366371;28;20816;-70
2023/05/14 13:14:30;;;;;;;2.37;2.27;;;21.00;36.70;;;;;;10365393;28;20241;-70
2023/05/14 13:19:35;;;;;;;2.30;2.10;;;21.10;36.20;;;;;;10370215;28;20636;-70
2023/05/14 13:24:38;;;;;;;2.27;2.17;;;21.20;35.40;;;;;;10370394;28;20221;-70
2023/05/14 13:29:41;;;;;;;2.20;2.10;;;21.30;35.70;;;;;;10374683;28;20885;-70
2023/05/14 13:34:45;;;;;;;2.27;2.17;;;21.30;35.30;;;;;;10377811;28;20233;-70
2023/05/14 13:39:48;;;;;;;2.10;2.00;;;21.40;34.80;;;;;;10377148;28;20225;-70
2023/05/14 13:44:55;;;;;;;2.57;2.37;;;21.40;35.50;;;;;;10374403;28;20280;-70
2023/05/14 13:49:59;;;;;;;1.87;1.77;;;21.50;35.30;;;;;;10377136;28;20241;-70
2023/05/14 13:55:03;;;;;;;2.10;2.00;;;21.50;35.20;;;;;;10374543;28;20316;-70
2023/05/14 14:00:08;;;;;;;1.93;1.83;;;21.50;34.70;;;;;;10372736;28;20226;-71
2023/05/14 14:05:12;;;;;;;2.20;1.90;;;21.60;34.60;;;;;;10374080;28;20234;-70
2023/05/14 14:10:16;;;;;;;1.90;1.80;;;21.60;34.80;;;;;;10374315;28;20328;-70
2023/05/14 14:15:19;;;;;;;2.00;1.70;;;21.70;34.80;;;;;;10376198;28;20245;-70
2023/05/14 14:20:24;;;;;;;2.47;2.27;;;21.70;34.70;;;;;;10374220;28;20250;-70
2023/05/14 14:25:27;;;;;;;1.87;1.77;;;21.90;34.10;;;;;;10376582;28;20264;-70
2023/05/14 14:30:30;;;;;;;3.13;1.80;;;22.00;34.10;;;;;;10373173;28;20712;-70
2023/05/14 14:35:36;;;;;;;2.20;2.10;;;22.00;34.30;;;;;;10377390;28;20248;-70
2023/05/14 14:40:39;;;;;;;2.30;2.20;;;22.00;33.80;;;;;;10376810;28;20229;-70
2023/05/14 14:45:44;;;;;;;1.70;1.60;;;22.10;34.50;;;;;;10368611;28;20226;-70
2023/05/14 14:50:51;;;;;;;2.40;2.07;;;22.00;34.80;;;;;;10372842;28;20230;-70
2023/05/14 14:55:54;;;;;;;2.03;1.93;;;21.90;33.50;;;;;;10377437;28;20822;-70
2023/05/14 15:00:58;;;;;;;2.10;2.00;;;21.80;34.20;;;;;;10375091;28;20229;-70
2023/05/14 15:06:03;;;;;;;1.77;1.67;;;21.70;34.10;;;;;;10373784;28;20618;-70
2023/05/14 15:11:06;;;;;;;1.90;1.80;;;21.50;33.30;;;;;;10368939;28;20229;-70
2023/05/14 15:16:10;;;;;;;4.07;1.90;;;21.40;34.70;;;;;;10366475;28;20245;-70
2023/05/14 15:21:14;;;;;;;1.50;1.40;;;21.30;33.90;;;;;;10372940;28;20229;-70
2023/05/14 15:26:17;;;;;;;1.50;1.40;;;21.20;34.00;;;;;;10371685;28;20240;-70
2023/05/14 15:31:21;;;;;;;1.57;1.50;;;21.00;34.50;;;;;;10372224;28;20725;-70
2023/05/14 15:36:25;;;;;;;1.50;1.40;;;20.90;34.80;;;;;;10367508;28;20237;-70
2023/05/14 15:41:30;;;;;;;1.30;1.30;;;20.70;34.60;;;;;;10375882;28;20227;-70
2023/05/14 15:46:33;;;;;;;1.13;1.13;;;20.50;34.60;;;;;;10371029;28;20230;-70
2023/05/14 15:51:37;;;;;;;1.50;1.40;;;20.30;35.00;;;;;;10376057;28;20642;-70
2023/05/14 15:56:41;;;;;;;1.37;1.37;;;20.10;35.00;;;;;;10373206;28;20725;-70
2023/05/14 16:01:44;;;;;;;1.20;1.10;;;19.90;35.10;;;;;;10378348;28;20240;-70
2023/05/14 16:06:48;;;;;;;1.20;1.20;;;19.80;35.50;;;;;;10368494;28;20276;-70
2023/05/14 16:11:51;;;;;;;1.50;1.40;;;19.70;35.50;;;;;;10370625;28;21061;-71
2023/05/14 16:16:55;;;;;;;1.57;1.47;;;19.70;35.70;;;;;;10369262;28;20241;-70
2023/05/14 16:21:59;;;;;;;1.70;1.60;;;19.60;35.80;;;;;;10370592;28;20233;-71
2023/05/14 16:27:03;;;;;;;1.33;1.23;;;19.50;35.90;;;;;;10367759;28;20237;-70
2023/05/14 16:32:06;;;;;;;1.80;1.70;;;19.50;36.10;;;;;;10368882;28;20230;-70
2023/05/14 16:37:12;;;;;;;1.10;1.10;;;19.30;35.60;;;;;;10368981;28;20262;-70
2023/05/14 16:42:15;;;;;;;1.20;1.20;;;19.20;35.80;;;;;;10367688;28;20796;-70
2023/05/14 16:47:18;;;;;;;1.23;1.13;;;19.10;35.70;;;;;;10368791;28;20234;-70
2023/05/14 16:52:23;;;;;;;1.23;1.23;;;19.10;35.70;;;;;;10363673;28;20238;-70
2023/05/14 16:57:26;;;;;;;2.30;2.07;;;19.10;35.70;;;;;;10372066;28;20241;-69
2023/05/14 17:02:29;;;;;;;1.03;1.03;;;19.00;35.60;;;;;;10370616;28;20224;-69
2023/05/14 17:07:34;;;;;;;1.20;1.20;;;19.00;35.60;;;;;;10383457;28;20283;-70
2023/05/14 17:12:37;;;;;;;1.40;1.30;;;18.90;35.50;;;;;;10382169;28;20228;-70
2023/05/14 17:17:41;;;;;;;1.00;1.00;;;18.90;35.50;;;;;;10382910;28;20293;-70
2023/05/14 17:22:45;;;;;;;1.27;1.20;;;18.90;35.50;;;;;;10379619;28;20956;-70
2023/05/14 17:27:48;;;;;;;2.47;1.30;;;18.80;35.50;;;;;;10384337;28;20268;-71
2023/05/14 17:32:52;;;;;;;1.30;1.20;;;18.70;35.90;;;;;;10377723;28;20226;-70
2023/05/14 17:37:56;;;;;;;1.20;1.20;;;18.70;36.20;;;;;;10376102;28;20230;-69
2023/05/14 17:43:02;;;;;;;1.17;1.17;;;18.80;36.30;;;;;;10382290;28;20248;-70
2023/05/14 17:48:06;;;;;;;1.40;1.30;;;18.80;36.30;;;;;;10378846;28;20234;-69
2023/05/14 17:53:10;;;;;;;1.17;1.07;;;18.80;36.40;;;;;;10375897;28;20253;-69
2023/05/14 17:58:14;;;;;;;1.53;1.17;;;18.80;36.80;;;;;;10378722;28;20265;-69
2023/05/14 18:03:19;;;;;;;1.40;1.30;;;18.80;36.60;;;;;;10380702;28;20258;-70
2023/05/14 18:08:23;;;;;;;1.00;1.00;;;18.80;36.80;;;;;;10371559;28;20242;-68
2023/05/14 18:13:27;;;;;;;1.60;1.30;;;18.70;37.00;;;;;;10367619;28;20237;-69
2023/05/14 18:18:31;;;;;;;1.30;1.30;;;18.70;36.80;;;;;;10371817;28;20234;-69
2023/05/14 18:23:35;;;;;;;1.40;1.30;;;18.60;37.10;;;;;;10372852;28;20279;-70
2023/05/14 18:28:38;;;;;;;1.40;1.40;;;18.60;37.30;;;;;;10363714;28;20225;-69
2023/05/14 18:33:42;;;;;;;1.60;1.50;;;18.60;37.10;;;;;;10368223;28;20219;-69
2023/05/14 18:38:46;;;;;;;1.40;1.40;;;18.60;37.10;;;;;;10368331;28;20226;-69
2023/05/14 18:43:50;;;;;;;1.50;1.40;;;18.50;37.50;;;;;;10369279;28;20277;-68
2023/05/14 18:48:53;;;;;;;1.80;1.70;;;18.50;37.40;;;;;;10363970;28;20253;-69
2023/05/14 18:53:58;;;;;;;1.70;1.60;;;18.50;37.40;;;;;;10369469;28;20254;-69
2023/05/14 18:59:01;;;;;;;1.70;1.60;;;18.40;37.50;;;;;;10367058;28;20511;-69
2023/05/14 19:04:05;;;;;;;1.60;1.50;;;18.30;37.20;;;;;;10363101;28;20249;-68
2023/05/14 19:09:10;;;;;;;2.90;1.60;;;18.30;37.40;;;;;;10369686;28;20597;-69
2023/05/14 19:14:14;;;;;;;1.63;1.30;;;18.20;37.40;;;;;;10375228;28;20251;-69
2023/05/14 19:19:17;;;;;;;1.47;1.37;;;18.10;37.30;;;;;;10374985;28;20229;-69
2023/05/14 19:24:22;;;;;;;1.57;1.47;;;18.00;37.30;;;;;;10374793;28;20236;-69
2023/05/14 19:29:25;;;;;;;1.70;1.60;;;18.00;37.70;;;;;;10372781;28;20234;-70
2023/05/14 19:34:29;;;;;;;1.60;1.50;;;17.90;37.60;;;;;;10371908;28;20316;-70
2023/05/14 19:39:33;;;;;;;1.60;1.40;;;17.80;37.70;;;;;;10375201;28;20234;-69
2023/05/14 19:44:36;;;;;;;1.80;1.70;;;17.80;38.10;;;;;;10372081;28;20233;-69
2023/05/14 19:49:40;;;;;;;1.70;1.60;;;17.80;38.10;;;;;;10373884;28;20225;-70
2023/05/14 19:54:44;;;;;;;1.67;1.57;;;17.70;38.00;;;;;;10365765;28;21034;-69
2023/05/14 19:59:47;;;;;;;1.50;1.40;;;17.70;38.50;;;;;;10370851;28;20237;-69
2023/05/14 20:04:54;;;;;;;1.83;1.73;;;17.60;38.20;;;;;;10370444;28;20241;-70
2023/05/14 20:09:58;;;;;;;2.27;2.07;;;17.60;38.20;;;;;;10370665;28;20221;-70
2023/05/14 20:15:02;;;;;;;2.50;1.90;;;17.50;38.30;;;;;;10365224;28;21042;-69
2023/05/14 20:20:08;;;;;;;2.70;1.83;;;17.40;38.10;;;;;;10374326;28;20221;-69
2023/05/14 20:25:13;;;;;;;2.00;1.90;;;17.40;38.40;;;;;;10371812;28;20262;-69
2023/05/14 20:30:16;;;;;;;2.90;1.90;;;17.30;38.70;;;;;;10372507;28;20225;-69
2023/05/14 20:35:19;;;;;;;1.70;1.60;;;17.30;38.40;;;;;;10370735;28;20238;-70
2023/05/14 20:40:24;;;;;;;1.60;1.50;;;17.20;38.30;;;;;;10374289;28;20229;-69
2023/05/14 20:45:27;;;;;;;1.90;1.80;;;17.20;38.70;;;;;;10371271;28;20237;-70
2023/05/14 20:50:30;;;;;;;2.00;1.90;;;17.10;38.40;;;;;;10371180;28;20229;-69
2023/05/14 20:55:35;;;;;;;1.60;1.50;;;17.10;38.40;;;;;;10367482;28;20532;-69
2023/05/14 21:00:38;;;;;;;2.30;2.10;;;17.10;38.80;;;;;;10369768;28;20225;-69
2023/05/14 21:05:42;;;;;;;2.00;1.80;;;17.00;38.40;;;;;;10369857;28;20234;-69
2023/05/14 21:10:47;;;;;;;2.30;2.10;;;16.90;38.40;;;;;;10368200;28;20230;-70
2023/05/14 21:15:50;;;;;;;2.27;2.00;;;16.90;38.90;;;;;;10368869;28;20859;-69
2023/05/14 21:20:53;;;;;;;2.30;2.20;;;16.80;38.80;;;;;;10369561;28;20280;-69
2023/05/14 21:25:58;;;;;;;2.00;1.90;;;16.80;39.00;;;;;;10368124;28;20226;-69
2023/05/14 21:31:01;;;;;;;2.33;2.23;;;16.70;39.40;;;;;;10366650;28;20238;-69
2023/05/14 21:36:04;;;;;;;2.57;2.37;;;16.60;39.30;;;;;;10367593;28;20234;-69
2023/05/14 21:41:09;;;;;;;2.40;2.30;;;16.60;39.40;;;;;;10369142;28;20226;-69
2023/05/14 21:46:12;;;;;;;2.80;2.50;;;16.60;39.70;;;;;;10371365;28;20295;-69
2023/05/14 21:51:15;;;;;;;3.63;3.33;;;16.50;39.60;;;;;;10375285;28;20513;-69
2023/05/14 21:56:21;;;;;;;4.10;3.80;;;16.50;39.60;;;;;;10376788;28;20225;-70
2023/05/14 22:01:24;;;;;;;4.23;3.93;;;16.40;40.10;;;;;;10373282;28;20232;-69
2023/05/14 22:06:27;;;;;;;4.60;4.20;;;16.40;39.90;;;;;;10377815;28;20285;-69
2023/05/14 22:11:32;;;;;;;4.27;3.97;;;16.40;40.10;;;;;;10367926;28;20257;-69
2023/05/14 22:16:35;;;;;;;5.27;4.80;;;16.40;40.50;;;;;;10374887;28;20702;-70
2023/05/14 22:21:39;;;;;;;3.93;3.63;;;16.40;40.30;;;;;;10368588;28;20832;-69
2023/05/14 22:26:43;;;;;;;4.87;4.47;;;16.40;40.20;;;;;;10365431;28;20230;-69
2023/05/14 22:31:47;;;;;;;4.70;4.40;;;16.40;40.70;;;;;;10370353;28;20233;-69
2023/05/14 22:36:50;;;;;;;5.50;5.10;;;16.40;40.30;;;;;;10367032;28;20275;-69
2023/05/14 22:41:54;;;;;;;4.93;4.53;;;16.30;40.30;;;;;;10367431;28;20960;-69
2023/05/14 22:46:58;;;;;;;5.27;4.80;;;16.30;40.80;;;;;;10372486;28;20288;-69
2023/05/14 22:52:01;;;;;;;5.17;4.80;;;16.20;40.50;;;;;;10368949;28;20225;-69
2023/05/14 22:57:06;;;;;;;4.33;4.00;;;16.20;40.50;;;;;;10372242;28;20312;-69
2023/05/14 23:02:09;;;;;;;5.03;4.53;;;16.20;41.00;;;;;;10368260;28;20238;-69
2023/05/14 23:07:13;;;;;;;5.10;4.60;;;16.20;40.70;;;;;;10368139;28;20595;-69
2023/05/14 23:12:17;;;;;;;4.70;4.30;;;16.10;40.70;;;;;;10366414;28;21044;-69
2023/05/14 23:17:21;;;;;;;4.17;3.87;;;16.10;41.20;;;;;;10364964;28;20230;-69
2023/05/14 23:22:24;;;;;;;4.40;4.07;;;16.10;40.90;;;;;;10364544;28;20284;-69
2023/05/14 23:27:28;;;;;;;4.20;3.90;;;16.10;40.90;;;;;;10371527;28;20232;-69
2023/05/14 23:32:31;;;;;;;4.30;3.80;;;16.00;41.20;;;;;;10374547;28;20230;-69
2023/05/14 23:37:40;;;;;;;4.23;3.93;;;16.00;41.00;;;;;;10379781;28;20328;-69
2023/05/14 23:42:45;;;;;;;3.93;3.50;;;16.00;41.20;;;;;;10374761;28;20222;-69
2023/05/14 23:47:48;;;;;;;3.83;3.57;;;15.90;41.50;;;;;;10373383;28;20236;-69
2023/05/14 23:52:52;;;;;;;4.50;3.93;;;16.00;41.20;;;;;;10376921;28;20984;-69
2023/05/14 23:57:57;;;;;;;4.27;3.87;;;15.90;41.30;;;;;;10381011;28;20230;-69
